sensor_id;sensor_type;location;lat;lon;timestamp;P1;durP1;ratioP1;P2;durP2;ratioP2
74912;SDS011;63878;55.624;37.304;2023-04-03T00:02:46;9.20;;;5.97;;
74912;SDS011;63878;55.624;37.304;2023-04-03T00:12:46;11.85;;;5.47;;
74912;SDS011;63878;55.624;37.304;2023-04-03T00:22:47;9.13;;;6.07;;
74912;SDS011;63878;55.624;37.304;2023-04-03T00:32:48;8.10;;;5.22;;
74912;SDS011;63878;55.624;37.304;2023-04-03T00:42:51;9.35;;;5.97;;
74912;SDS011;63878;55.624;37.304;2023-04-03T00:52:55;7.47;;;5.63;;
74912;SDS011;63878;55.624;37.304;2023-04-03T01:02:57;6.72;;;5.30;;
74912;SDS011;63878;55.624;37.304;2023-04-03T01:12:57;11.32;;;6.20;;
74912;SDS011;63878;55.624;37.304;2023-04-03T01:33:09;11.77;;;6.57;;
74912;SDS011;63878;55.624;37.304;2023-04-03T01:43:10;8.82;;;5.95;;
74912;SDS011;63878;55.624;37.304;2023-04-03T01:53:10;8.95;;;5.72;;
74912;SDS011;63878;55.624;37.304;2023-04-03T02:03:14;9.77;;;6.68;;
74912;SDS011;63878;55.624;37.304;2023-04-03T02:13:15;8.93;;;5.45;;
74912;SDS011;63878;55.624;37.304;2023-04-03T02:23:16;11.05;;;6.07;;
74912;SDS011;63878;55.624;37.304;2023-04-03T02:33:17;9.37;;;5.93;;
74912;SDS011;63878;55.624;37.304;2023-04-03T02:43:18;9.70;;;6.03;;
74912;SDS011;63878;55.624;37.304;2023-04-03T02:53:18;10.23;;;5.53;;
74912;SDS011;63878;55.624;37.304;2023-04-03T03:03:19;9.98;;;5.25;;
74912;SDS011;63878;55.624;37.304;2023-04-03T03:13:20;11.02;;;6.20;;
74912;SDS011;63878;55.624;37.304;2023-04-03T03:23:20;8.80;;;6.32;;
74912;SDS011;63878;55.624;37.304;2023-04-03T03:33:23;12.77;;;6.60;;
74912;SDS011;63878;55.624;37.304;2023-04-03T03:43:23;8.07;;;5.85;;
74912;SDS011;63878;55.624;37.304;2023-04-03T03:53:24;11.40;;;6.77;;
74912;SDS011;63878;55.624;37.304;2023-04-03T04:03:24;10.90;;;7.18;;
74912;SDS011;63878;55.624;37.304;2023-04-03T04:13:25;10.85;;;6.20;;
74912;SDS011;63878;55.624;37.304;2023-04-03T04:23:25;10.67;;;6.97;;
74912;SDS011;63878;55.624;37.304;2023-04-03T04:33:26;12.45;;;7.40;;
74912;SDS011;63878;55.624;37.304;2023-04-03T04:43:26;10.30;;;6.97;;
74912;SDS011;63878;55.624;37.304;2023-04-03T04:53:27;9.75;;;6.90;;
74912;SDS011;63878;55.624;37.304;2023-04-03T05:03:27;11.63;;;7.68;;
74912;SDS011;63878;55.624;37.304;2023-04-03T05:13:28;13.65;;;7.95;;
74912;SDS011;63878;55.624;37.304;2023-04-03T05:23:29;12.85;;;7.80;;
74912;SDS011;63878;55.624;37.304;2023-04-03T05:33:29;15.30;;;9.20;;
74912;SDS011;63878;55.624;37.304;2023-04-03T05:43:29;14.05;;;8.60;;
74912;SDS011;63878;55.624;37.304;2023-04-03T05:53:31;15.38;;;9.13;;
74912;SDS011;63878;55.624;37.304;2023-04-03T06:13:34;14.60;;;9.02;;
74912;SDS011;63878;55.624;37.304;2023-04-03T06:23:35;17.70;;;9.48;;
74912;SDS011;63878;55.624;37.304;2023-04-03T06:33:35;16.27;;;9.25;;
74912;SDS011;63878;55.624;37.304;2023-04-03T06:43:36;16.75;;;10.65;;
74912;SDS011;63878;55.624;37.304;2023-04-03T06:53:36;12.77;;;9.35;;
74912;SDS011;63878;55.624;37.304;2023-04-03T07:03:37;18.10;;;9.90;;
74912;SDS011;63878;55.624;37.304;2023-04-03T07:13:38;13.63;;;9.10;;
74912;SDS011;63878;55.624;37.304;2023-04-03T07:23:39;12.75;;;8.57;;
74912;SDS011;63878;55.624;37.304;2023-04-03T07:33:40;15.27;;;9.60;;
74912;SDS011;63878;55.624;37.304;2023-04-03T07:43:41;13.95;;;8.98;;
74912;SDS011;63878;55.624;37.304;2023-04-03T07:53:41;16.02;;;8.70;;
74912;SDS011;63878;55.624;37.304;2023-04-03T08:03:42;15.27;;;8.02;;
74912;SDS011;63878;55.624;37.304;2023-04-03T08:13:44;12.63;;;8.00;;
74912;SDS011;63878;55.624;37.304;2023-04-03T08:23:47;18.20;;;7.93;;
74912;SDS011;63878;55.624;37.304;2023-04-03T08:33:49;17.55;;;8.73;;
74912;SDS011;63878;55.624;37.304;2023-04-03T08:43:54;19.88;;;9.27;;
74912;SDS011;63878;55.624;37.304;2023-04-03T08:54:06;14.57;;;9.70;;
74912;SDS011;63878;55.624;37.304;2023-04-03T09:04:19;17.38;;;8.52;;
74912;SDS011;63878;55.624;37.304;2023-04-03T09:25:10;15.45;;;8.15;;
74912;SDS011;63878;55.624;37.304;2023-04-03T09:35:22;15.15;;;8.80;;
74912;SDS011;63878;55.624;37.304;2023-04-03T09:45:32;14.30;;;8.75;;
74912;SDS011;63878;55.624;37.304;2023-04-03T09:55:41;20.00;;;10.30;;
74912;SDS011;63878;55.624;37.304;2023-04-03T10:05:43;18.52;;;11.10;;
74912;SDS011;63878;55.624;37.304;2023-04-03T10:15:51;15.15;;;8.80;;
74912;SDS011;63878;55.624;37.304;2023-04-03T10:26:17;13.57;;;8.02;;
74912;SDS011;63878;55.624;37.304;2023-04-03T10:37:46;12.10;;;7.30;;
74912;SDS011;63878;55.624;37.304;2023-04-03T10:58:03;10.77;;;6.00;;
74912;SDS011;63878;55.624;37.304;2023-04-03T11:08:08;10.45;;;6.10;;
74912;SDS011;63878;55.624;37.304;2023-04-03T11:28:42;18.33;;;8.18;;
74912;SDS011;63878;55.624;37.304;2023-04-03T11:38:43;13.30;;;7.13;;
74912;SDS011;63878;55.624;37.304;2023-04-03T11:48:48;10.65;;;6.57;;
74912;SDS011;63878;55.624;37.304;2023-04-03T12:09:26;17.27;;;9.15;;
74912;SDS011;63878;55.624;37.304;2023-04-03T12:19:42;17.25;;;7.80;;
74912;SDS011;63878;55.624;37.304;2023-04-03T12:29:47;12.53;;;7.87;;
74912;SDS011;63878;55.624;37.304;2023-04-03T12:40:01;21.00;;;7.68;;
74912;SDS011;63878;55.624;37.304;2023-04-03T12:50:17;11.15;;;6.80;;
74912;SDS011;63878;55.624;37.304;2023-04-03T13:00:31;10.25;;;5.35;;
74912;SDS011;63878;55.624;37.304;2023-04-03T13:10:43;10.85;;;6.40;;
74912;SDS011;63878;55.624;37.304;2023-04-03T13:20:50;11.57;;;5.57;;
74912;SDS011;63878;55.624;37.304;2023-04-03T13:30:55;7.70;;;5.63;;
74912;SDS011;63878;55.624;37.304;2023-04-03T13:41:24;9.65;;;5.93;;
74912;SDS011;63878;55.624;37.304;2023-04-03T13:51:33;12.35;;;6.20;;
74912;SDS011;63878;55.624;37.304;2023-04-03T14:01:43;12.35;;;5.80;;
74912;SDS011;63878;55.624;37.304;2023-04-03T14:11:47;9.07;;;5.25;;
74912;SDS011;63878;55.624;37.304;2023-04-03T14:21:49;10.82;;;5.70;;
74912;SDS011;63878;55.624;37.304;2023-04-03T14:31:51;12.32;;;6.25;;
74912;SDS011;63878;55.624;37.304;2023-04-03T14:41:51;13.90;;;7.60;;
74912;SDS011;63878;55.624;37.304;2023-04-03T14:51:52;12.35;;;6.03;;
74912;SDS011;63878;55.624;37.304;2023-04-03T15:01:53;11.67;;;5.87;;
74912;SDS011;63878;55.624;37.304;2023-04-03T15:11:54;10.07;;;5.53;;
74912;SDS011;63878;55.624;37.304;2023-04-03T15:21:55;8.57;;;5.32;;
74912;SDS011;63878;55.624;37.304;2023-04-03T15:31:55;10.38;;;5.72;;
74912;SDS011;63878;55.624;37.304;2023-04-03T15:41:56;14.90;;;5.50;;
74912;SDS011;63878;55.624;37.304;2023-04-03T15:51:57;15.05;;;7.00;;
74912;SDS011;63878;55.624;37.304;2023-04-03T16:01:58;13.30;;;6.00;;
74912;SDS011;63878;55.624;37.304;2023-04-03T16:12:01;9.77;;;5.20;;
74912;SDS011;63878;55.624;37.304;2023-04-03T16:22:01;8.77;;;4.60;;
74912;SDS011;63878;55.624;37.304;2023-04-03T16:32:02;10.43;;;5.68;;
74912;SDS011;63878;55.624;37.304;2023-04-03T16:42:03;13.57;;;5.70;;
74912;SDS011;63878;55.624;37.304;2023-04-03T16:52:04;9.20;;;4.73;;
74912;SDS011;63878;55.624;37.304;2023-04-03T17:02:05;11.45;;;5.40;;
74912;SDS011;63878;55.624;37.304;2023-04-03T17:12:06;10.52;;;5.68;;
74912;SDS011;63878;55.624;37.304;2023-04-03T17:22:07;12.93;;;5.95;;
74912;SDS011;63878;55.624;37.304;2023-04-03T17:32:08;9.05;;;5.50;;
74912;SDS011;63878;55.624;37.304;2023-04-03T17:42:10;10.35;;;5.82;;
74912;SDS011;63878;55.624;37.304;2023-04-03T17:52:10;10.50;;;6.37;;
74912;SDS011;63878;55.624;37.304;2023-04-03T18:02:11;12.90;;;6.60;;
74912;SDS011;63878;55.624;37.304;2023-04-03T18:12:11;12.73;;;6.13;;
74912;SDS011;63878;55.624;37.304;2023-04-03T18:22:13;20.55;;;6.03;;
74912;SDS011;63878;55.624;37.304;2023-04-03T18:32:31;13.02;;;6.40;;
74912;SDS011;63878;55.624;37.304;2023-04-03T18:42:31;9.68;;;5.75;;
74912;SDS011;63878;55.624;37.304;2023-04-03T18:52:32;16.30;;;6.53;;
74912;SDS011;63878;55.624;37.304;2023-04-03T19:02:33;10.50;;;6.75;;
74912;SDS011;63878;55.624;37.304;2023-04-03T19:12:34;14.65;;;7.65;;
74912;SDS011;63878;55.624;37.304;2023-04-03T19:22:34;8.85;;;5.20;;
74912;SDS011;63878;55.624;37.304;2023-04-03T19:32:35;9.23;;;5.45;;
74912;SDS011;63878;55.624;37.304;2023-04-03T19:42:36;8.98;;;5.38;;
74912;SDS011;63878;55.624;37.304;2023-04-03T19:52:36;9.80;;;6.10;;
74912;SDS011;63878;55.624;37.304;2023-04-03T20:02:37;11.93;;;7.35;;
74912;SDS011;63878;55.624;37.304;2023-04-03T20:12:38;12.10;;;6.93;;
74912;SDS011;63878;55.624;37.304;2023-04-03T20:22:38;14.53;;;7.63;;
74912;SDS011;63878;55.624;37.304;2023-04-03T20:32:39;10.48;;;7.03;;
74912;SDS011;63878;55.624;37.304;2023-04-03T20:42:40;13.95;;;7.10;;
74912;SDS011;63878;55.624;37.304;2023-04-03T20:52:41;16.23;;;9.13;;
74912;SDS011;63878;55.624;37.304;2023-04-03T21:02:41;15.17;;;9.03;;
74912;SDS011;63878;55.624;37.304;2023-04-03T21:23:20;14.15;;;8.20;;
74912;SDS011;63878;55.624;37.304;2023-04-03T21:33:20;15.27;;;9.73;;
74912;SDS011;63878;55.624;37.304;2023-04-03T21:43:20;18.50;;;10.25;;
74912;SDS011;63878;55.624;37.304;2023-04-03T21:53:22;17.25;;;11.00;;
74912;SDS011;63878;55.624;37.304;2023-04-03T22:03:32;16.40;;;10.20;;
74912;SDS011;63878;55.624;37.304;2023-04-03T22:13:33;16.92;;;11.20;;
74912;SDS011;63878;55.624;37.304;2023-04-03T22:23:34;13.95;;;9.88;;
74912;SDS011;63878;55.624;37.304;2023-04-03T22:33:35;17.00;;;11.33;;
74912;SDS011;63878;55.624;37.304;2023-04-03T22:43:37;17.83;;;10.75;;
74912;SDS011;63878;55.624;37.304;2023-04-03T22:53:39;21.30;;;13.18;;
74912;SDS011;63878;55.624;37.304;2023-04-03T23:03:40;18.33;;;12.20;;
74912;SDS011;63878;55.624;37.304;2023-04-03T23:13:41;20.73;;;13.27;;
74912;SDS011;63878;55.624;37.304;2023-04-03T23:23:41;20.55;;;12.15;;
74912;SDS011;63878;55.624;37.304;2023-04-03T23:33:42;17.83;;;11.20;;
74912;SDS011;63878;55.624;37.304;2023-04-03T23:43:42;19.42;;;11.07;;
74912;SDS011;63878;55.624;37.304;2023-04-03T23:53:43;17.60;;;10.30;;
